Time;durP1;ratioP1;P1;durP2;ratioP2;P2;SDS_P1;SDS_P2;PMS_P1;PMS_P2;Temp;Humidity;BMP_temperature;BMP_pressure;BME280_temperature;BME280_humidity;BME280_pressure;Samples;Min_cycle;Max_cycle;Signal;HPM_P1;HPM_P2
2023/07/19 00:01:36;;;;;;;25.33;11.27;;;;;;;;;;6198966;28;20062;-60
2023/07/19 00:04:36;;;;;;;21.33;11.23;;;;;;;;;;6199072;28;20038;-59
2023/07/19 00:07:37;;;;;;;21.07;11.53;;;;;;;;;;6198666;28;20046;-56
2023/07/19 00:10:37;;;;;;;23.33;11.57;;;;;;;;;;6198333;28;20046;-57
2023/07/19 00:13:38;;;;;;;20.60;10.50;;;;;;;;;;6199089;28;20485;-60
2023/07/19 00:16:39;;;;;;;25.07;10.93;;;;;;;;;;6199863;28;20046;-60
2023/07/19 00:19:39;;;;;;;20.07;11.23;;;;;;;;;;6203598;28;20425;-59
2023/07/19 00:22:40;;;;;;;23.30;11.77;;;;;;;;;;6213463;28;20100;-59
2023/07/19 00:25:41;;;;;;;23.03;11.10;;;;;;;;;;6205548;28;20045;-61
2023/07/19 00:28:41;;;;;;;19.90;11.00;;;;;;;;;;6200900;28;20481;-62
2023/07/19 00:31:43;;;;;;;26.53;10.80;;;;;;;;;;6201212;28;20041;-61
2023/07/19 00:34:43;;;;;;;25.93;10.80;;;;;;;;;;6196631;28;20090;-60
2023/07/19 00:37:44;;;;;;;21.47;10.23;;;;;;;;;;6200011;28;20038;-59
2023/07/19 00:40:44;;;;;;;19.13;9.80;;;;;;;;;;6211653;28;20548;-61
2023/07/19 00:43:47;;;;;;;21.47;10.70;;;;;;;;;;6197056;28;20497;-61
2023/07/19 00:46:48;;;;;;;19.48;10.90;;;;;;;;;;6200182;28;20452;-60
2023/07/19 00:49:49;;;;;;;21.80;10.35;;;;;;;;;;6205238;28;20129;-61
2023/07/19 00:52:51;;;;;;;22.15;10.43;;;;;;;;;;6205506;28;20042;-60
2023/07/19 00:55:53;;;;;;;19.35;9.90;;;;;;;;;;6195449;28;20046;-60
2023/07/19 00:58:54;;;;;;;20.92;10.45;;;;;;;;;;6201326;28;20046;-61
2023/07/19 01:01:55;;;;;;;20.10;9.65;;;;;;;;;;6199773;28;20634;-59
2023/07/19 01:04:56;;;;;;;23.23;10.10;;;;;;;;;;6207363;28;20034;-61
2023/07/19 01:07:58;;;;;;;19.73;10.20;;;;;;;;;;6201752;28;20049;-59
2023/07/19 01:10:59;;;;;;;19.90;9.90;;;;;;;;;;6201191;28;20456;-60
2023/07/19 01:14:00;;;;;;;22.60;10.30;;;;;;;;;;6199005;28;20046;-61
2023/07/19 01:17:00;;;;;;;16.03;8.57;;;;;;;;;;6205339;28;20054;-61
2023/07/19 01:20:02;;;;;;;18.63;10.47;;;;;;;;;;6202658;28;20073;-61
2023/07/19 01:23:04;;;;;;;21.55;10.02;;;;;;;;;;6207008;28;20516;-61
2023/07/19 01:26:04;;;;;;;22.63;10.27;;;;;;;;;;6199393;28;20048;-61
2023/07/19 01:29:05;;;;;;;16.30;9.70;;;;;;;;;;6198542;28;20049;-61
2023/07/19 01:32:06;;;;;;;20.00;10.27;;;;;;;;;;6210361;28;20070;-61
2023/07/19 01:35:07;;;;;;;18.77;10.17;;;;;;;;;;6204639;28;20061;-62
2023/07/19 01:38:08;;;;;;;20.30;9.50;;;;;;;;;;6198719;28;20046;-61
2023/07/19 01:41:08;;;;;;;20.60;10.20;;;;;;;;;;6204469;28;20349;-59
2023/07/19 01:44:09;;;;;;;19.08;9.10;;;;;;;;;;6197765;28;20121;-61
2023/07/19 01:47:09;;;;;;;24.10;9.95;;;;;;;;;;6198625;28;20048;-59
2023/07/19 01:50:10;;;;;;;24.77;10.50;;;;;;;;;;6204468;28;20037;-58
2023/07/19 01:53:11;;;;;;;24.70;10.80;;;;;;;;;;6200475;28;20049;-58
2023/07/19 01:56:12;;;;;;;23.95;10.98;;;;;;;;;;6199470;28;20532;-56
2023/07/19 01:59:12;;;;;;;21.03;11.20;;;;;;;;;;6205940;28;20049;-55
2023/07/19 02:02:13;;;;;;;22.70;10.40;;;;;;;;;;6198979;28;20192;-61
2023/07/19 02:05:13;;;;;;;21.47;10.07;;;;;;;;;;6200339;28;20042;-60
2023/07/19 02:08:14;;;;;;;20.57;9.97;;;;;;;;;;6200769;28;20606;-59
2023/07/19 02:11:14;;;;;;;21.70;9.70;;;;;;;;;;6206911;28;20459;-60
2023/07/19 02:14:15;;;;;;;20.03;10.70;;;;;;;;;;6202757;28;20100;-61
2023/07/19 02:17:16;;;;;;;18.75;10.38;;;;;;;;;;6202447;28;20050;-61
2023/07/19 02:20:19;;;;;;;19.43;10.20;;;;;;;;;;6208786;28;20488;-61
2023/07/19 02:23:19;;;;;;;24.65;10.88;;;;;;;;;;6198835;28;20413;-61
2023/07/19 02:26:20;;;;;;;23.50;11.13;;;;;;;;;;6196989;28;20038;-60
2023/07/19 02:29:21;;;;;;;23.57;10.70;;;;;;;;;;6198672;28;20046;-60
2023/07/19 02:32:21;;;;;;;24.10;11.20;;;;;;;;;;6198623;28;20042;-61
2023/07/19 02:35:22;;;;;;;25.88;11.13;;;;;;;;;;6196944;28;20742;-60
2023/07/19 02:38:24;;;;;;;26.80;11.77;;;;;;;;;;6196639;28;20089;-61
2023/07/19 02:41:24;;;;;;;20.63;11.10;;;;;;;;;;6198124;28;20049;-60
2023/07/19 02:44:25;;;;;;;24.70;10.43;;;;;;;;;;6199516;28;22097;-60
2023/07/19 02:47:26;;;;;;;24.83;11.27;;;;;;;;;;6196241;28;20041;-61
2023/07/19 02:50:26;;;;;;;20.42;9.90;;;;;;;;;;6199053;28;20133;-60
2023/07/19 02:53:27;;;;;;;33.67;12.33;;;;;;;;;;6203480;28;20046;-61
2023/07/19 02:56:27;;;;;;;23.25;10.68;;;;;;;;;;6199151;28;20133;-61
2023/07/19 02:59:28;;;;;;;21.98;10.75;;;;;;;;;;6205139;28;20116;-60
2023/07/19 03:02:29;;;;;;;22.83;10.50;;;;;;;;;;6203868;28;20066;-61
2023/07/19 03:05:29;;;;;;;23.47;10.40;;;;;;;;;;6206235;28;20046;-59
2023/07/19 03:08:30;;;;;;;21.15;10.65;;;;;;;;;;6198620;28;20522;-60
2023/07/19 03:11:30;;;;;;;23.67;10.23;;;;;;;;;;6203332;28;20096;-60
2023/07/19 03:14:31;;;;;;;22.92;10.98;;;;;;;;;;6204986;28;20116;-61
2023/07/19 03:17:31;;;;;;;24.80;11.37;;;;;;;;;;6206064;28;20053;-57
2023/07/19 03:20:32;;;;;;;22.67;11.02;;;;;;;;;;6196750;28;20128;-61
2023/07/19 03:23:33;;;;;;;25.05;10.50;;;;;;;;;;6199680;28;20054;-61
2023/07/19 03:26:33;;;;;;;24.85;11.23;;;;;;;;;;6203126;28;20057;-59
2023/07/19 03:29:34;;;;;;;19.33;10.03;;;;;;;;;;6203230;28;20057;-60
2023/07/19 03:32:35;;;;;;;23.83;10.60;;;;;;;;;;6206531;28;20143;-61
2023/07/19 03:35:35;;;;;;;24.77;10.10;;;;;;;;;;6213410;28;20429;-60
2023/07/19 03:38:36;;;;;;;21.63;11.05;;;;;;;;;;6216665;28;20629;-60
2023/07/19 03:41:36;;;;;;;24.30;10.70;;;;;;;;;;6216728;28;20053;-59
2023/07/19 03:44:37;;;;;;;17.50;9.60;;;;;;;;;;6215643;28;20046;-60
2023/07/19 03:47:39;;;;;;;20.37;10.87;;;;;;;;;;6215424;28;20497;-60
2023/07/19 03:50:40;;;;;;;23.00;10.32;;;;;;;;;;6210678;28;20145;-61
2023/07/19 03:53:40;;;;;;;23.90;10.40;;;;;;;;;;6216138;28;20042;-61
2023/07/19 03:56:41;;;;;;;20.10;11.02;;;;;;;;;;6215380;28;20080;-61
2023/07/19 03:59:41;;;;;;;26.67;10.73;;;;;;;;;;6216557;28;20058;-59
2023/07/19 04:02:42;;;;;;;24.67;10.57;;;;;;;;;;6214263;28;20061;-59
2023/07/19 04:05:43;;;;;;;20.80;10.20;;;;;;;;;;6215031;28;20053;-61
2023/07/19 04:08:44;;;;;;;21.83;10.50;;;;;;;;;;6216642;28;20095;-61
2023/07/19 04:11:44;;;;;;;25.40;10.32;;;;;;;;;;6220464;28;20053;-61
2023/07/19 04:14:45;;;;;;;21.67;10.68;;;;;;;;;;6219503;28;20093;-61
2023/07/19 04:17:45;;;;;;;20.60;10.18;;;;;;;;;;6220103;28;20053;-60
2023/07/19 04:20:53;;;;;;;20.70;10.63;;;;;;;;;;6184212;28;20065;-61
2023/07/19 04:23:53;;;;;;;19.13;9.73;;;;;;;;;;6212971;28;20189;-60
2023/07/19 04:26:54;;;;;;;26.83;10.83;;;;;;;;;;6217580;28;20081;-60
2023/07/19 04:29:54;;;;;;;22.60;9.77;;;;;;;;;;6209345;28;20433;-58
2023/07/19 04:32:55;;;;;;;23.80;10.97;;;;;;;;;;6202451;28;20141;-61
2023/07/19 04:35:56;;;;;;;23.70;10.93;;;;;;;;;;6201877;28;20042;-61
2023/07/19 04:38:57;;;;;;;23.90;10.10;;;;;;;;;;6205871;28;20046;-60
2023/07/19 04:41:57;;;;;;;28.25;11.00;;;;;;;;;;6205932;28;20505;-61
2023/07/19 04:44:58;;;;;;;23.97;10.60;;;;;;;;;;6200408;28;20070;-61
2023/07/19 04:47:58;;;;;;;24.47;10.47;;;;;;;;;;6199115;28;20406;-61
2023/07/19 04:50:59;;;;;;;20.70;10.47;;;;;;;;;;6199797;28;20514;-60
2023/07/19 04:54:00;;;;;;;21.27;10.03;;;;;;;;;;6199774;28;20045;-60
2023/07/19 04:57:00;;;;;;;23.40;11.70;;;;;;;;;;6201308;28;20053;-61
2023/07/19 05:00:04;;;;;;;28.10;10.60;;;;;;;;;;6200266;28;20060;-60
2023/07/19 05:03:05;;;;;;;25.48;10.52;;;;;;;;;;6202769;28;20137;-60
2023/07/19 05:06:05;;;;;;;22.57;10.60;;;;;;;;;;6200968;28;20049;-61
2023/07/19 05:09:09;;;;;;;21.87;10.70;;;;;;;;;;6198194;28;20417;-61
2023/07/19 05:12:10;;;;;;;28.60;10.93;;;;;;;;;;6198877;28;20048;-61
2023/07/19 05:15:11;;;;;;;19.35;9.82;;;;;;;;;;6199936;28;20500;-61
2023/07/19 05:18:11;;;;;;;20.80;10.37;;;;;;;;;;6199364;28;20474;-60
2023/07/19 05:21:12;;;;;;;23.97;10.17;;;;;;;;;;6196534;28;20074;-61
2023/07/19 05:24:12;;;;;;;27.37;11.30;;;;;;;;;;6196851;28;20042;-60
2023/07/19 05:27:16;;;;;;;25.13;11.03;;;;;;;;;;6196348;28;20488;-61
2023/07/19 05:30:16;;;;;;;25.70;11.07;;;;;;;;;;6193341;28;20442;-61
2023/07/19 05:33:17;;;;;;;27.27;11.13;;;;;;;;;;6197336;28;20074;-61
2023/07/19 05:36:17;;;;;;;34.27;10.97;;;;;;;;;;6198339;28;20415;-61
2023/07/19 05:39:18;;;;;;;24.47;10.33;;;;;;;;;;6198568;28;20493;-60
2023/07/19 05:42:18;;;;;;;23.10;10.03;;;;;;;;;;6198516;28;20241;-61
2023/07/19 05:45:19;;;;;;;24.43;9.87;;;;;;;;;;6197488;28;20426;-60
2023/07/19 05:48:20;;;;;;;22.07;11.03;;;;;;;;;;6197422;28;20034;-60
2023/07/19 05:51:20;;;;;;;17.47;9.20;;;;;;;;;;6200300;28;20133;-61
2023/07/19 05:54:21;;;;;;;23.70;10.20;;;;;;;;;;6198667;28;20566;-62
2023/07/19 05:57:22;;;;;;;22.00;10.20;;;;;;;;;;6198243;28;20053;-62
2023/07/19 06:00:24;;;;;;;20.90;10.13;;;;;;;;;;6181724;28;20141;-57
2023/07/19 06:03:25;;;;;;;18.55;9.70;;;;;;;;;;6198995;28;20496;-61
2023/07/19 06:06:25;;;;;;;21.97;10.27;;;;;;;;;;6197623;28;20050;-61
2023/07/19 06:09:26;;;;;;;22.57;10.17;;;;;;;;;;6189433;28;20057;-61
2023/07/19 06:12:27;;;;;;;28.13;9.83;;;;;;;;;;6196689;28;20042;-61
2023/07/19 06:15:28;;;;;;;22.27;9.95;;;;;;;;;;6194730;28;20046;-62
2023/07/19 06:18:29;;;;;;;24.60;9.87;;;;;;;;;;6197885;28;20065;-60
2023/07/19 06:21:31;;;;;;;18.88;9.30;;;;;;;;;;6197017;28;20046;-60
2023/07/19 06:24:32;;;;;;;21.08;9.65;;;;;;;;;;6196393;28;20046;-61
2023/07/19 06:27:32;;;;;;;20.53;9.03;;;;;;;;;;6197700;28;20068;-61
2023/07/19 06:30:33;;;;;;;22.33;9.27;;;;;;;;;;6197297;28;20132;-61
2023/07/19 06:33:34;;;;;;;23.53;10.00;;;;;;;;;;6197469;28;20563;-62
2023/07/19 06:36:34;;;;;;;22.17;10.20;;;;;;;;;;6206779;28;20042;-61
2023/07/19 06:39:35;;;;;;;18.53;9.37;;;;;;;;;;6207611;28;20087;-62
2023/07/19 06:42:36;;;;;;;23.43;9.83;;;;;;;;;;6205207;28;21079;-61
2023/07/19 06:45:37;;;;;;;19.67;9.63;;;;;;;;;;6205952;28;20498;-62
2023/07/19 06:48:37;;;;;;;20.87;10.10;;;;;;;;;;6207784;28;20042;-60
2023/07/19 06:51:38;;;;;;;22.20;10.60;;;;;;;;;;6207274;28;20076;-60
2023/07/19 06:54:39;;;;;;;29.53;10.50;;;;;;;;;;6215357;28;20049;-61
2023/07/19 06:57:39;;;;;;;25.77;9.97;;;;;;;;;;6212425;28;20510;-62
2023/07/19 07:00:41;;;;;;;25.23;9.60;;;;;;;;;;6197421;28;20054;-62
2023/07/19 07:03:41;;;;;;;;;;;;;;;;;;6209124;28;20062;-60
2023/07/19 07:06:42;;;;;;;21.90;10.02;;;;;;;;;;6195071;28;20505;-61
2023/07/19 07:09:43;;;;;;;23.47;10.67;;;;;;;;;;6198058;28;20060;-62
2023/07/19 07:12:44;;;;;;;20.87;9.80;;;;;;;;;;6198653;28;20394;-60
2023/07/19 07:15:44;;;;;;;18.65;9.63;;;;;;;;;;6195813;28;20137;-62
2023/07/19 07:18:45;;;;;;;23.20;10.57;;;;;;;;;;6196543;28;20096;-61
2023/07/19 07:21:46;;;;;;;21.37;9.77;;;;;;;;;;6197410;28;20131;-62
2023/07/19 07:24:46;;;;;;;20.60;10.10;;;;;;;;;;6195949;28;21314;-62
2023/07/19 07:27:47;;;;;;;23.57;9.57;;;;;;;;;;6196085;28;20065;-62
2023/07/19 07:30:47;;;;;;;22.60;10.70;;;;;;;;;;6195493;28;20430;-61
2023/07/19 07:33:48;;;;;;;22.40;10.27;;;;;;;;;;6196856;28;20085;-63
2023/07/19 07:36:49;;;;;;;23.13;10.50;;;;;;;;;;6193362;28;20501;-61
2023/07/19 07:39:50;;;;;;;22.38;10.20;;;;;;;;;;6196753;28;20046;-60
2023/07/19 07:42:51;;;;;;;20.90;9.80;;;;;;;;;;6196568;28;20043;-57
2023/07/19 07:45:55;;;;;;;25.38;10.77;;;;;;;;;;6199375;28;20046;-61
2023/07/19 07:48:59;;;;;;;22.98;10.63;;;;;;;;;;6202968;28;20077;-62
2023/07/19 07:51:59;;;;;;;22.38;10.60;;;;;;;;;;6204043;28;20038;-62
2023/07/19 07:55:00;;;;;;;26.87;11.40;;;;;;;;;;6198935;28;20077;-63
2023/07/19 07:58:02;;;;;;;22.20;11.20;;;;;;;;;;6204906;28;20446;-62
2023/07/19 08:01:02;;;;;;;25.40;11.25;;;;;;;;;;6205656;28;20042;-63
2023/07/19 08:04:06;;;;;;;21.83;11.27;;;;;;;;;;6198133;28;20177;-62
2023/07/19 08:07:06;;;;;;;25.05;11.15;;;;;;;;;;6197869;28;20043;-62
2023/07/19 08:10:07;;;;;;;29.03;11.70;;;;;;;;;;6200903;28;20474;-63
2023/07/19 08:13:08;;;;;;;20.53;10.53;;;;;;;;;;6200767;28;20045;-62
2023/07/19 08:16:09;;;;;;;26.48;11.38;;;;;;;;;;6201887;28;20049;-62
2023/07/19 08:19:09;;;;;;;24.50;11.27;;;;;;;;;;6201405;28;20101;-61
2023/07/19 08:22:24;;;;;;;21.47;10.73;;;;;;;;;;6197590;28;20060;-62
2023/07/19 08:25:24;;;;;;;29.08;11.00;;;;;;;;;;6198999;28;20042;-61
2023/07/19 08:28:25;;;;;;;20.50;10.73;;;;;;;;;;6200067;28;20204;-62
2023/07/19 08:31:26;;;;;;;19.83;10.63;;;;;;;;;;6198853;28;20039;-63
2023/07/19 08:34:27;;;;;;;23.43;11.63;;;;;;;;;;6200664;28;20070;-62
2023/07/19 08:37:27;;;;;;;23.00;11.13;;;;;;;;;;6197658;28;20057;-62
2023/07/19 08:40:31;;;;;;;18.40;10.33;;;;;;;;;;6200532;28;20046;-63
2023/07/19 08:43:33;;;;;;;25.45;10.32;;;;;;;;;;6200002;28;20053;-62
2023/07/19 08:46:33;;;;;;;18.35;9.93;;;;;;;;;;6199071;28;20046;-63
2023/07/19 08:49:35;;;;;;;19.87;10.73;;;;;;;;;;6199281;28;20120;-63
2023/07/19 08:52:36;;;;;;;19.48;9.68;;;;;;;;;;6197001;28;20060;-62
2023/07/19 08:55:39;;;;;;;20.67;9.95;;;;;;;;;;6198745;28;20064;-62
2023/07/19 08:58:40;;;;;;;19.90;9.35;;;;;;;;;;6199504;28;20060;-62
2023/07/19 09:01:42;;;;;;;22.17;9.80;;;;;;;;;;6197800;28;20058;-62
2023/07/19 09:05:09;;;;;;;19.60;10.52;;;;;;;;;;6214531;28;20401;-62
2023/07/19 09:08:10;;;;;;;21.15;9.80;;;;;;;;;;6200770;28;20121;-62
2023/07/19 09:11:18;;;;;;;22.77;9.70;;;;;;;;;;6200060;28;20086;-62
2023/07/19 09:14:33;;;;;;;19.75;9.90;;;;;;;;;;6200363;28;20141;-62
2023/07/19 09:17:44;;;;;;;20.52;10.07;;;;;;;;;;6198509;28;20513;-62
2023/07/19 09:20:45;;;;;;;23.98;10.55;;;;;;;;;;6204985;28;20052;-61
2023/07/19 09:23:45;;;;;;;20.40;9.13;;;;;;;;;;6200821;28;20066;-62
2023/07/19 09:26:50;;;;;;;16.73;9.60;;;;;;;;;;6200336;28;20035;-62
2023/07/19 09:29:51;;;;;;;17.58;9.98;;;;;;;;;;6195727;28;20418;-62
2023/07/19 09:32:59;;;;;;;15.10;9.80;;;;;;;;;;6197550;28;20060;-62
2023/07/19 09:36:00;;;;;;;17.58;9.80;;;;;;;;;;6196735;28;21100;-62
2023/07/19 09:39:00;;;;;;;18.13;9.27;;;;;;;;;;6199380;28;20062;-62
2023/07/19 09:42:05;;;;;;;17.02;9.32;;;;;;;;;;6198571;28;20460;-62
2023/07/19 09:45:07;;;;;;;16.65;9.73;;;;;;;;;;6198758;28;20043;-62
2023/07/19 09:48:08;;;;;;;18.95;9.90;;;;;;;;;;6199176;28;20054;-62
2023/07/19 09:51:10;;;;;;;16.20;9.07;;;;;;;;;;6198789;28;20064;-62
2023/07/19 09:54:12;;;;;;;15.43;8.75;;;;;;;;;;6198651;28;20474;-61
2023/07/19 09:57:13;;;;;;;20.42;9.77;;;;;;;;;;6199472;28;20104;-62
2023/07/19 10:00:14;;;;;;;17.80;9.40;;;;;;;;;;6196793;28;20039;-63
2023/07/19 10:03:19;;;;;;;16.92;9.57;;;;;;;;;;6198653;28;20529;-63
2023/07/19 10:06:28;;;;;;;20.38;10.68;;;;;;;;;;6198302;28;20120;-62
2023/07/19 10:09:43;;;;;;;21.40;10.57;;;;;;;;;;6197969;28;20058;-62
2023/07/19 10:12:48;;;;;;;17.73;9.80;;;;;;;;;;6196323;28;20061;-62
2023/07/19 10:15:50;;;;;;;17.17;9.73;;;;;;;;;;6195398;28;20532;-62
2023/07/19 10:19:11;;;;;;;19.95;10.40;;;;;;;;;;6199981;28;20100;-62
2023/07/19 10:22:11;;;;;;;19.83;10.70;;;;;;;;;;6198329;28;20515;-61
2023/07/19 10:25:32;;;;;;;19.58;10.07;;;;;;;;;;6196166;28;20042;-61
2023/07/19 10:28:33;;;;;;;21.10;11.07;;;;;;;;;;6196112;28;20042;-63
2023/07/19 10:31:34;;;;;;;17.77;10.07;;;;;;;;;;6199517;28;20049;-62
2023/07/19 10:34:36;;;;;;;17.33;10.20;;;;;;;;;;6196411;28;20050;-61
2023/07/19 10:37:36;;;;;;;20.17;10.27;;;;;;;;;;6196997;28;20056;-61
2023/07/19 10:40:37;;;;;;;20.13;10.60;;;;;;;;;;6198840;28;20039;-61
2023/07/19 10:43:38;;;;;;;20.43;10.50;;;;;;;;;;6198305;28;20078;-63
2023/07/19 10:46:42;;;;;;;21.20;11.45;;;;;;;;;;6194040;28;21109;-62
2023/07/19 10:49:42;;;;;;;25.20;10.32;;;;;;;;;;6193111;28;20054;-62
2023/07/19 10:52:46;;;;;;;16.53;9.83;;;;;;;;;;6195460;28;20042;-62
2023/07/19 10:55:47;;;;;;;23.35;11.45;;;;;;;;;;6197390;28;20038;-63
2023/07/19 10:58:47;;;;;;;20.80;9.83;;;;;;;;;;6195798;28;20050;-61
2023/07/19 11:01:49;;;;;;;19.05;10.40;;;;;;;;;;6196985;28;20573;-63
2023/07/19 11:04:49;;;;;;;19.75;10.32;;;;;;;;;;6194336;28;20064;-63
2023/07/19 11:07:50;;;;;;;21.45;10.38;;;;;;;;;;6197789;28;20473;-63
2023/07/19 11:10:52;;;;;;;18.38;10.10;;;;;;;;;;6196834;28;20050;-60
2023/07/19 11:13:53;;;;;;;19.48;9.77;;;;;;;;;;6196117;28;20046;-63
2023/07/19 11:16:55;;;;;;;19.00;9.20;;;;;;;;;;6196132;28;20038;-62
2023/07/19 11:19:59;;;;;;;20.58;9.88;;;;;;;;;;6202004;28;20046;-62
2023/07/19 11:23:05;;;;;;;22.75;10.13;;;;;;;;;;6207136;28;20046;-63
2023/07/19 11:26:13;;;;;;;16.77;9.60;;;;;;;;;;6204093;28;20049;-63
2023/07/19 11:29:13;;;;;;;24.05;10.82;;;;;;;;;;6205125;28;20050;-63
2023/07/19 11:32:18;;;;;;;17.65;9.60;;;;;;;;;;6203452;28;20045;-63
2023/07/19 11:35:25;;;;;;;17.58;8.75;;;;;;;;;;6204289;28;20164;-63
2023/07/19 11:38:26;;;;;;;17.35;9.07;;;;;;;;;;6201075;28;20053;-63
2023/07/19 11:41:30;;;;;;;17.60;8.53;;;;;;;;;;6205218;28;20046;-61
2023/07/19 11:44:32;;;;;;;15.25;8.55;;;;;;;;;;6203714;28;20057;-62
2023/07/19 11:47:32;;;;;;;23.27;8.65;;;;;;;;;;6201186;28;20041;-62
2023/07/19 11:50:33;;;;;;;15.95;8.77;;;;;;;;;;6204844;28;20074;-62
2023/07/19 11:53:33;;;;;;;15.50;8.77;;;;;;;;;;6205549;28;20051;-61
2023/07/19 11:56:35;;;;;;;18.27;9.10;;;;;;;;;;6202307;28;20141;-62
2023/07/19 11:59:35;;;;;;;13.80;8.55;;;;;;;;;;6205149;28;20054;-62
2023/07/19 12:02:37;;;;;;;20.17;8.93;;;;;;;;;;6206347;28;20524;-62
2023/07/19 12:05:39;;;;;;;15.50;8.85;;;;;;;;;;6203498;28;20043;-62
2023/07/19 12:08:41;;;;;;;17.85;8.52;;;;;;;;;;6206554;28;20085;-63
2023/07/19 12:11:41;;;;;;;14.93;8.35;;;;;;;;;;6204258;28;20046;-62
2023/07/19 12:14:42;;;;;;;20.08;9.30;;;;;;;;;;6202380;28;20065;-62
2023/07/19 12:17:43;;;;;;;16.87;9.37;;;;;;;;;;6202209;28;20456;-63
2023/07/19 12:20:44;;;;;;;17.45;9.32;;;;;;;;;;6203803;28;20045;-62
2023/07/19 12:23:44;;;;;;;16.37;8.20;;;;;;;;;;6204475;28;20410;-63
2023/07/19 12:26:45;;;;;;;18.15;7.15;;;;;;;;;;6202614;28;20512;-62
2023/07/19 12:29:45;;;;;;;14.27;7.90;;;;;;;;;;6208292;28;20127;-62
2023/07/19 12:32:46;;;;;;;15.65;8.00;;;;;;;;;;6202853;28;20604;-62
2023/07/19 12:35:47;;;;;;;14.10;7.70;;;;;;;;;;6200751;28;20050;-62
2023/07/19 12:38:48;;;;;;;15.52;8.27;;;;;;;;;;6197742;28;20046;-62
2023/07/19 12:41:49;;;;;;;15.90;7.90;;;;;;;;;;6198780;28;20061;-61
2023/07/19 12:44:50;;;;;;;15.88;7.88;;;;;;;;;;6200203;28;20061;-61
2023/07/19 12:47:50;;;;;;;17.27;8.80;;;;;;;;;;6194812;28;20050;-62
2023/07/19 12:50:51;;;;;;;12.65;7.38;;;;;;;;;;6197846;28;20081;-62
2023/07/19 12:53:52;;;;;;;13.40;7.80;;;;;;;;;;6197382;28;20049;-60
2023/07/19 12:56:54;;;;;;;14.27;7.63;;;;;;;;;;6199213;28;20141;-62
2023/07/19 12:59:54;;;;;;;18.05;7.90;;;;;;;;;;6197648;28;20053;-61
2023/07/19 13:02:55;;;;;;;16.40;8.07;;;;;;;;;;6195196;28;20065;-61
2023/07/19 13:05:55;;;;;;;14.67;7.87;;;;;;;;;;6194933;28;20438;-62
2023/07/19 13:08:56;;;;;;;15.13;7.97;;;;;;;;;;6197919;28;20046;-62
2023/07/19 13:11:57;;;;;;;18.17;7.97;;;;;;;;;;6196444;28;20054;-63
2023/07/19 13:14:58;;;;;;;15.85;8.48;;;;;;;;;;6197482;28;20214;-62
2023/07/19 13:17:58;;;;;;;14.83;7.83;;;;;;;;;;6195679;28;20058;-62
2023/07/19 13:20:59;;;;;;;13.88;7.55;;;;;;;;;;6197415;28;20077;-61
2023/07/19 13:23:59;;;;;;;22.20;8.77;;;;;;;;;;6194066;28;20061;-62
2023/07/19 13:27:06;;;;;;;15.13;8.25;;;;;;;;;;6195020;28;20515;-62
2023/07/19 13:30:06;;;;;;;14.02;7.53;;;;;;;;;;6199998;28;20042;-62
2023/07/19 13:33:08;;;;;;;15.10;7.70;;;;;;;;;;6198290;28;20261;-62
2023/07/19 13:36:08;;;;;;;14.20;8.15;;;;;;;;;;6197809;28;20643;-62
2023/07/19 13:39:09;;;;;;;13.55;7.47;;;;;;;;;;6195993;28;20517;-62
2023/07/19 13:42:09;;;;;;;13.97;7.23;;;;;;;;;;6195749;28;20107;-62
2023/07/19 13:45:10;;;;;;;14.82;7.63;;;;;;;;;;6196054;28;20745;-61
2023/07/19 13:48:11;;;;;;;15.00;7.32;;;;;;;;;;6193712;28;20046;-62
2023/07/19 13:51:11;;;;;;;13.32;6.85;;;;;;;;;;6197917;28;20045;-62
2023/07/19 13:54:12;;;;;;;13.60;7.67;;;;;;;;;;6195469;28;20046;-61
2023/07/19 13:57:13;;;;;;;12.18;7.00;;;;;;;;;;6194572;28;20318;-62
2023/07/19 14:00:14;;;;;;;14.67;7.77;;;;;;;;;;6194348;28;20054;-61
2023/07/19 14:03:15;;;;;;;15.25;7.65;;;;;;;;;;6195129;28;20806;-61
2023/07/19 14:06:16;;;;;;;11.55;7.53;;;;;;;;;;6198084;28;20042;-62
2023/07/19 14:09:17;;;;;;;13.32;7.32;;;;;;;;;;6197414;28;20060;-62
2023/07/19 14:12:17;;;;;;;13.37;7.23;;;;;;;;;;6193479;28;20050;-62
2023/07/19 14:15:18;;;;;;;13.30;7.07;;;;;;;;;;6196822;28;20413;-62
2023/07/19 14:18:18;;;;;;;17.13;7.43;;;;;;;;;;6192903;28;20080;-62
2023/07/19 14:21:19;;;;;;;15.77;7.35;;;;;;;;;;6176963;28;20988;-61
2023/07/19 14:24:19;;;;;;;12.70;7.10;;;;;;;;;;6191035;28;20449;-62
2023/07/19 14:27:20;;;;;;;11.57;7.00;;;;;;;;;;6194893;28;20406;-61
2023/07/19 14:30:20;;;;;;;11.67;7.03;;;;;;;;;;6198134;28;20046;-62
2023/07/19 14:33:22;;;;;;;14.05;6.85;;;;;;;;;;6192729;28;20386;-62
2023/07/19 14:36:22;;;;;;;13.23;7.63;;;;;;;;;;6193137;28;20133;-62
2023/07/19 14:39:24;;;;;;;14.27;7.25;;;;;;;;;;6197234;28;20054;-61
2023/07/19 14:42:26;;;;;;;13.95;7.45;;;;;;;;;;6194792;28;20051;-62
2023/07/19 14:45:28;;;;;;;13.60;7.28;;;;;;;;;;6194532;28;20080;-62
2023/07/19 14:48:30;;;;;;;13.93;7.63;;;;;;;;;;6193479;28;20131;-61
2023/07/19 14:51:31;;;;;;;11.60;7.05;;;;;;;;;;6194683;28;20544;-61
2023/07/19 14:54:32;;;;;;;14.60;7.35;;;;;;;;;;6196159;28;20042;-62
2023/07/19 14:57:33;;;;;;;14.40;7.07;;;;;;;;;;6191385;28;20407;-62
2023/07/19 15:00:33;;;;;;;14.43;7.20;;;;;;;;;;6193742;28;20077;-61
2023/07/19 15:03:34;;;;;;;14.27;7.18;;;;;;;;;;6191777;28;20057;-61
2023/07/19 15:06:35;;;;;;;13.15;6.97;;;;;;;;;;6194767;28;20107;-61
2023/07/19 15:09:36;;;;;;;13.27;6.68;;;;;;;;;;6192761;28;20129;-62
2023/07/19 15:12:37;;;;;;;17.67;7.70;;;;;;;;;;6193891;28;20089;-62
2023/07/19 15:15:37;;;;;;;12.85;6.95;;;;;;;;;;6195403;28;20428;-61
2023/07/19 15:18:38;;;;;;;15.68;7.30;;;;;;;;;;6193576;28;20050;-61
2023/07/19 15:21:39;;;;;;;14.52;7.28;;;;;;;;;;6189565;28;20038;-61
2023/07/19 15:24:39;;;;;;;16.37;6.70;;;;;;;;;;6193811;28;20475;-61
2023/07/19 15:27:40;;;;;;;12.52;6.50;;;;;;;;;;6193734;28;20581;-62
2023/07/19 15:30:41;;;;;;;11.05;6.88;;;;;;;;;;6195465;28;20076;-61
2023/07/19 15:33:41;;;;;;;13.48;6.80;;;;;;;;;;6192640;28;20046;-61
2023/07/19 15:36:43;;;;;;;12.90;6.40;;;;;;;;;;6194736;28;20046;-61
2023/07/19 15:39:44;;;;;;;12.00;6.65;;;;;;;;;;6195035;28;20372;-61
2023/07/19 15:42:45;;;;;;;12.57;6.45;;;;;;;;;;6191587;28;20046;-61
2023/07/19 15:45:46;;;;;;;11.88;6.60;;;;;;;;;;6194106;28;20050;-61
2023/07/19 15:48:47;;;;;;;14.50;6.53;;;;;;;;;;6190511;28;20584;-61
2023/07/19 15:51:47;;;;;;;10.07;5.82;;;;;;;;;;6191879;28;20049;-60
2023/07/19 15:54:48;;;;;;;10.97;6.13;;;;;;;;;;6191372;28;20100;-61
2023/07/19 15:57:48;;;;;;;12.73;5.85;;;;;;;;;;6193165;28;20299;-61
2023/07/19 16:00:49;;;;;;;14.30;5.70;;;;;;;;;;6195399;28;20038;-61
2023/07/19 16:03:50;;;;;;;12.00;6.05;;;;;;;;;;6191291;28;20058;-61
2023/07/19 16:06:50;;;;;;;12.00;5.30;;;;;;;;;;6193491;28;20046;-61
2023/07/19 16:09:52;;;;;;;11.25;5.45;;;;;;;;;;6201341;28;20802;-61
2023/07/19 16:12:53;;;;;;;;;;;;;;;;;;6196016;28;20394;-60
2023/07/19 16:15:54;;;;;;;12.77;5.35;;;;;;;;;;6197776;28;19965;-61
2023/07/19 16:18:54;;;;;;;9.63;5.60;;;;;;;;;;6197120;28;20143;-61
2023/07/19 16:21:55;;;;;;;9.73;5.43;;;;;;;;;;6194044;28;20169;-61
2023/07/19 16:24:55;;;;;;;8.90;5.03;;;;;;;;;;6193759;28;20062;-61
2023/07/19 16:27:56;;;;;;;12.23;5.25;;;;;;;;;;6195577;28;20052;-61
2023/07/19 16:30:57;;;;;;;8.68;5.00;;;;;;;;;;6198613;28;20045;-62
2023/07/19 16:33:57;;;;;;;11.10;4.88;;;;;;;;;;6196936;28;20071;-62
2023/07/19 16:36:58;;;;;;;10.57;5.53;;;;;;;;;;6197600;28;20107;-62
2023/07/19 16:39:59;;;;;;;15.88;5.10;;;;;;;;;;6176731;28;21203;-62
2023/07/19 16:42:59;;;;;;;8.30;5.07;;;;;;;;;;6195571;28;20049;-62
2023/07/19 16:46:00;;;;;;;8.93;5.10;;;;;;;;;;6198451;28;20667;-62
2023/07/19 16:49:01;;;;;;;12.43;5.25;;;;;;;;;;6195823;28;20501;-62
2023/07/19 16:52:01;;;;;;;11.60;5.47;;;;;;;;;;6194285;28;20092;-61
2023/07/19 16:55:02;;;;;;;11.80;5.57;;;;;;;;;;6193937;28;20050;-61
2023/07/19 16:58:03;;;;;;;10.60;5.60;;;;;;;;;;6193910;28;20303;-61
2023/07/19 17:01:04;;;;;;;10.23;5.20;;;;;;;;;;6195282;28;20053;-61
2023/07/19 17:04:05;;;;;;;14.57;5.38;;;;;;;;;;6195794;28;20067;-61
2023/07/19 17:07:06;;;;;;;8.98;4.97;;;;;;;;;;6179296;28;20169;-61
2023/07/19 17:10:07;;;;;;;9.05;4.88;;;;;;;;;;6199443;28;20058;-61
2023/07/19 17:13:08;;;;;;;10.27;5.53;;;;;;;;;;6191724;28;20452;-62
2023/07/19 17:16:08;;;;;;;12.80;5.53;;;;;;;;;;6194409;28;20427;-63
2023/07/19 17:19:09;;;;;;;10.02;5.10;;;;;;;;;;6195483;28;20148;-62
2023/07/19 17:22:10;;;;;;;12.90;5.63;;;;;;;;;;6196431;28;20172;-61
2023/07/19 17:25:10;;;;;;;11.52;5.95;;;;;;;;;;6196426;28;20041;-61
2023/07/19 17:28:11;;;;;;;11.77;5.53;;;;;;;;;;6195569;28;20061;-61
2023/07/19 17:31:12;;;;;;;8.90;5.17;;;;;;;;;;6197015;28;20470;-62
2023/07/19 17:34:12;;;;;;;10.73;5.43;;;;;;;;;;6192778;28;20058;-62
2023/07/19 17:37:13;;;;;;;8.57;5.50;;;;;;;;;;6195571;28;20053;-62
2023/07/19 17:40:14;;;;;;;9.38;5.07;;;;;;;;;;6198751;28;20050;-62
2023/07/19 17:43:14;;;;;;;12.25;5.70;;;;;;;;;;6197605;28;20053;-61
2023/07/19 17:46:18;;;;;;;11.52;5.40;;;;;;;;;;6196889;28;20189;-62